• Join FlightAware (Why Join?)
  • Login
  • US Flag 
06:23AM EDT


 

Airport Tracker/Info


-or-


 

Live Flight TrackerFlight Track Log ✈ LXJ342 ✈ 29-Jun-2013 ✈ KASE - KFLL

Flight Track Log - Related Links

Times and Time Zones

All times are in EDT time to prevent confusion due to time zone crossing. See the LXJ342 flight status page for this flight to view local times or setup timezone preferences in your user account.

Time Position Orientation Groundspeed Altitude Reporting Facility
EDT Latitude Longitude Course Direction KTS MPH feet Rate Location/Type
01:40PM 39.2869 -106.9722 276° West 229 264 12,300  Level Denver Center
01:41PM 39.3306 -107.0731 299° West 265 305 15,400 2,640 Climbing Denver Center
01:42PM 39.4128 -107.0703 North 298 343 17,800 2,280 Climbing Denver Center
01:43PM 39.4939 -107.0406 16° North 312 359 20,200 1,500 Climbing Denver Center
01:44PM 39.5972 -107.0025 16° North 344 396 21,000 960 Climbing Denver Center
01:45PM 39.6925 -106.9742 13° North 370 426 22,200 1,740 Climbing Denver Center
01:46PM 39.7925 -106.9447 13° North 368 423 24,600 1,800 Climbing Denver Center
01:47PM 39.8853 -106.8836 27° Northeast 378 435 26,000 660 Climbing Denver Center
01:48PM 39.9914 -106.7914 34° Northeast 391 450 26,000 840 Level Denver Center
01:49PM 40.0144 -106.6600 77° East 405 466 27,800 1,500 Climbing Denver Center
01:50PM 39.9358 -106.5289 128° Southeast 425 489 29,200 1,140 Climbing Denver Center
01:51PM 39.9439 -106.3997 85° East 412 474 30,200 960 Climbing Denver Center
01:52PM 39.9928 -106.2261 70° East 427 491 31,300 960 Climbing Denver Center
01:53PM 39.9853 -106.0625 93° East 452 520 32,200 780 Climbing Denver Center
01:54PM 39.9758 -105.8958 94° East 459 528 33,000 360 Climbing Denver Center
01:55PM 39.9656 -105.7233 94° East 470 541 33,000  Level Denver Center
01:56PM 39.9386 -105.5528 102° East 474 545 33,000  Level Denver Center
01:57PM 39.8775 -105.3961 117° Southeast 489 563 33,000  Level Denver Center
01:58PM 39.9031 -105.1906 81° East 471 542 33,000  Level Denver Center
01:59PM 39.9203 -105.0228 82° East 466 536 33,000 60 Level Denver Center
02:00PM 39.9117 -104.8517 94° East 470 541 33,200 540 Climbing Denver Center
02:01PM 39.9006 -104.6797 95° East 471 542 34,200 960 Climbing Denver Center
02:02PM 39.8911 -104.5061 94° East 473 544 35,200 960 Climbing Denver Center
02:03PM 39.8811 -104.3294 94° East 490 564 36,200 840 Climbing Denver Center
02:04PM 39.8706 -104.1622 95° East 460 529 37,000 420 Climbing Denver Center
02:05PM 39.8597 -103.9900 95° East 477 549 37,100 420 Climbing Denver Center
02:06PM 39.8208 -103.8250 107° East 475 547 37,900 900 Climbing Denver Center
02:08PM 39.7603 -103.6328 112° Southeast 469 540 39,000 480 Climbing Denver Center
02:09PM 39.7119 -103.4725 111° Southeast 475 547 39,000  Level Denver Center
02:10PM 39.6608 -103.3083 112° Southeast 488 562 39,000  Level Denver Center
02:11PM 39.6100 -103.1414 112° Southeast 497 572 39,000  Level Denver Center
02:12PM 39.5617 -102.9797 111° Southeast 486 559 39,000  Level Denver Center
02:13PM 39.5014 -102.7869 112° Southeast 483 556 39,000  Level Denver Center
02:14PM 39.4525 -102.6283 112° Southeast 477 549 39,000  Level Denver Center
02:15PM 39.4036 -102.4681 111° Southeast 478 550 39,000  Level Denver Center
02:16PM 39.3542 -102.3089 112° Southeast 482 555 39,000  Level Denver Center
02:17PM 39.2978 -102.1319 112° Southeast 490 564 39,000  Level Denver Center
02:18PM 39.2478 -101.9753 112° Southeast 493 567 39,000  Level Denver Center
02:19PM 39.1900 -101.7931 112° Southeast 492 566 39,000  Level Denver Center
02:20PM 39.1386 -101.6294 112° Southeast 496 571 39,000  Level Denver Center
02:21PM 39.0803 -101.4519 113° Southeast 487 560 39,000  Level Denver Center
02:22PM 39.0319 -101.2997 112° Southeast 491 565 39,000  Level Denver Center
02:23PM 38.9750 -101.1247 113° Southeast 480 552 39,000  Level Denver Center
02:24PM 38.9264 -100.9761 113° Southeast 474 545 39,000  Level Denver Center
02:25PM 38.8692 -100.8025 113° Southeast 472 543 39,000  Level Denver Center
02:26PM 38.8200 -100.6547 113° Southeast 472 543 39,000  Level Denver Center
02:27PM 38.7625 -100.4803 113° Southeast 473 544 39,000  Level Denver Center
02:28PM 38.7114 -100.3281 113° Southeast 479 551 39,000  Level Denver Center
02:29PM 38.6600 -100.1753 113° Southeast 483 556 39,000  Level Denver Center
02:30PM 38.5997 -99.9969 113° Southeast 486 559 39,000  Level Denver Center
02:31PM 38.5558 -99.8711 114° Southeast 486 559 39,000  Level Denver Center
02:32PM 38.4869 -99.6697 114° Southeast 483 556 39,000  Level Denver Center
02:34PM 38.4306 -99.5036 113° Southeast 483 556 39,000  Level Kansas City Center
02:35PM 38.3656 -99.3164 114° Southeast 482 555 39,000  Level Kansas City Center
02:36PM 38.3100 -99.1619 115° Southeast 480 552 39,000  Level Kansas City Center
02:37PM 38.2567 -99.0078 114° Southeast 478 550 39,000  Level Kansas City Center
02:38PM 38.2000 -98.8486 114° Southeast 480 552 39,000  Level Kansas City Center
02:39PM 38.1478 -98.6983 114° Southeast 480 552 39,000  Level Kansas City Center
02:40PM 38.0919 -98.5442 115° Southeast 481 554 39,000  Level Kansas City Center
02:41PM 38.0369 -98.3883 114° Southeast 483 556 39,000  Level Kansas City Center
02:42PM 37.9692 -98.2011 115° Southeast 488 562 39,000  Level Kansas City Center
02:43PM 37.9111 -98.0444 115° Southeast 490 564 39,000  Level Kansas City Center
02:44PM 37.8547 -97.8894 115° Southeast 489 563 39,000  Level Kansas City Center
02:46PM 37.7613 -97.6550 116° Southeast  Level FlightAware Approximate
02:53PM 37.3592 -96.6693 116° Southeast  Level FlightAware Approximate
02:53PM 37.2981 -96.5089 119° Southeast 495 570 39,000  Level Kansas City Center
02:54PM 37.3037 -96.5277 116° Southeast  Level FlightAware Approximate
02:54PM 37.2383 -96.3692 118° Southeast 499 574 39,000  Level Kansas City Center
02:55PM 37.2469 -96.3870 118° Southeast  Level FlightAware Approximate
02:55PM 37.1722 -96.2144 118° Southeast 500 575 39,000  Level Kansas City Center
02:56PM 37.1874 -96.2482 118° Southeast  Level FlightAware Approximate
02:56PM 37.0922 -96.0272 118° Southeast 505 581 39,000  Level Kansas City Center
02:57PM 37.1270 -96.1100 119° Southeast  Level FlightAware Approximate
02:57PM 37.0253 -95.8722 118° Southeast 505 581 39,000  Level Kansas City Center
02:58PM 37.0661 -95.9723 119° Southeast  Level FlightAware Approximate
02:58PM 36.9575 -95.7167 119° Southeast 505 581 39,000  Level Kansas City Center
02:59PM 36.8886 -95.5617 119° Southeast 505 581 39,000  Level Kansas City Center
03:00PM 36.8219 -95.4072 118° Southeast 502 578 39,000  Level Kansas City Center
03:01PM 36.7533 -95.2511 119° Southeast 503 579 39,000  Level Kansas City Center
03:02PM 36.6839 -95.0944 119° Southeast 507 583 39,000  Level Kansas City Center
03:03PM 36.6133 -94.9383 119° Southeast 510 587 39,000  Level Kansas City Center
03:04PM 36.5433 -94.7842 119° Southeast 508 585 39,000  Level Kansas City Center
03:05PM 36.4744 -94.6322 119° Southeast 505 581 39,000  Level Kansas City Center
03:06PM 36.4053 -94.4778 119° Southeast 506 582 39,000  Level Kansas City Center
03:07PM 36.3333 -94.3242 120° Southeast 499 574 39,000  Level Memphis Center
03:08PM 36.2650 -94.1717 119° Southeast 505 581 39,000  Level Memphis Center
03:09PM 36.2114 -94.0147 113° Southeast 492 566 39,000  Level Memphis Center
03:10PM 36.1756 -93.8872 109° East 492 566 39,000  Level Memphis Center
03:11PM 36.1283 -93.7078 108° East 492 566 39,000  Level Memphis Center
03:12PM 36.0847 -93.5444 108° East 492 566 39,000  Level Memphis Center
03:13PM 36.0386 -93.3833 109° East 492 566 39,000  Level Memphis Center
03:14PM 35.9944 -93.2200 108° East 492 566 39,000  Level Memphis Center
03:15PM 35.9500 -93.0622 109° East 492 566 39,000  Level Memphis Center
03:16PM 35.9033 -92.8967 109° East 492 566 39,000  Level Memphis Center
03:17PM 35.8567 -92.7364 110° East 497 572 39,000  Level Memphis Center
03:18PM 35.8094 -92.5739 110° East 492 566 39,000  Level Memphis Center
03:19PM 35.7622 -92.4114 110° East 492 566 39,000  Level Memphis Center
03:20PM 35.7128 -92.2517 111° Southeast 492 566 39,000  Level Memphis Center
03:21PM 35.6650 -92.0894 110° East 492 566 39,000  Level Memphis Center
03:22PM 35.6192 -91.9278 109° East 492 566 39,000  Level Memphis Center
03:23PM 35.5650 -91.7556 111° Southeast 492 566 39,000  Level Memphis Center
03:24PM 35.5206 -91.5942 109° East 492 566 39,000  Level Memphis Center
03:25PM 35.4719 -91.4381 111° Southeast 492 566 39,000  Level Memphis Center
03:26PM 35.4233 -91.2819 111° Southeast 487 560 39,000  Level Memphis Center
03:27PM 35.3722 -91.1236 112° Southeast 492 566 39,000  Level Memphis Center
03:28PM 35.3272 -90.9678 109° East 483 556 39,000  Level Memphis Center
03:29PM 35.2839 -90.8328 111° Southeast 483 556 39,000  Level Memphis Center
03:30PM 35.2364 -90.6775 110° East 483 556 39,000  Level Memphis Center
03:31PM 35.1886 -90.5247 111° Southeast 490 564 39,000  Level Memphis Center
03:32PM 35.1431 -90.3747 110° East 485 558 39,000  Level Memphis Center
03:33PM 35.0969 -90.2250 111° Southeast 473 544 39,100 360 Climbing Memphis Center
03:34PM 35.0486 -90.0756 112° Southeast 468 539 39,800 660 Climbing Memphis Center
03:35PM 34.9836 -89.9286 118° Southeast 468 539 40,500 600 Climbing Memphis Center
03:36PM 34.8936 -89.8178 135° Southeast 467 537 41,000 240 Climbing Memphis Center
03:37PM 34.8072 -89.6969 131° Southeast 467 537 41,000  Level Memphis Center
03:38PM 34.7189 -89.5739 131° Southeast 491 565 41,000  Level Memphis Center
03:39PM 34.6328 -89.4561 132° Southeast 485 558 41,000  Level Memphis Center
03:40PM 34.5461 -89.3383 132° Southeast 474 545 41,000  Level Memphis Center
03:41PM 34.4617 -89.2261 132° Southeast 458 527 41,000  Level Memphis Center
03:42PM 34.3772 -89.1089 131° Southeast 458 527 41,000  Level Memphis Center
03:43PM 34.2819 -88.9822 132° Southeast 464 534 41,000  Level Memphis Center
03:44PM 34.1928 -88.8656 133° Southeast 469 540 41,000  Level Memphis Center
03:45PM 34.1058 -88.7517 133° Southeast 459 528 41,000  Level Memphis Center
03:46PM 34.0311 -88.6153 123° Southeast 466 536 41,000  Level Memphis Center
03:47PM 33.9706 -88.4736 117° Southeast 471 542 41,000  Level Memphis Center
03:48PM 33.9097 -88.3297 117° Southeast 476 548 41,000  Level Memphis Center
03:49PM 33.8531 -88.1811 115° Southeast 476 548 41,000  Level Memphis Center
03:51PM 33.7456 -87.9261 117° Southeast 483 556 41,000  Level Atlanta Center
03:52PM 33.6853 -87.7836 117° Southeast 478 550 41,000  Level Atlanta Center
03:53PM 33.6267 -87.6414 116° Southeast 478 550 41,000  Level Atlanta Center
03:54PM 33.5683 -87.4942 115° Southeast 483 556 41,000  Level Atlanta Center
03:55PM 33.5097 -87.3525 116° Southeast 478 550 41,000  Level Atlanta Center
03:56PM 33.4528 -87.2108 116° Southeast 478 550 41,000  Level Atlanta Center
03:57PM 33.3894 -87.0717 119° Southeast 478 550 41,000  Level Atlanta Center
03:58PM 33.3261 -86.9353 119° Southeast 473 544 41,000  Level Atlanta Center
03:59PM 33.2714 -86.7644 111° Southeast 494 568 41,000  Level Atlanta Center
04:00PM 33.2075 -86.6408 122° Southeast 462 532 41,000  Level Atlanta Center
04:01PM 33.1519 -86.4953 114° Southeast 468 539 41,000  Level Atlanta Center
04:02PM 33.0964 -86.3497 114° Southeast 474 545 41,000  Level Atlanta Center
04:03PM 33.0278 -86.2217 123° Southeast 469 540 41,000  Level Atlanta Center
04:04PM 32.9461 -86.1058 130° Southeast 459 528 41,000  Level Atlanta Center
04:05PM 32.8625 -85.9925 131° Southeast 454 522 41,000  Level Atlanta Center
04:06PM 32.7808 -85.8769 130° Southeast 459 528 41,000  Level Atlanta Center
04:07PM 32.6989 -85.7617 130° Southeast 459 528 41,000  Level Atlanta Center
04:08PM 32.6086 -85.6564 135° Southeast 459 528 41,000  Level Atlanta Center
04:09PM 32.4986 -85.5903 153° Southeast 446 513 41,000  Level Atlanta Center
04:10PM 32.3953 -85.5222 151° Southeast 446 513 41,000  Level Atlanta Center
04:12PM 32.1589 -85.3711 152° Southeast 435 501 41,000  Level Jacksonville Center
04:13PM 32.0517 -85.3044 152° Southeast 435 501 41,000  Level Jacksonville Center
04:14PM 31.9486 -85.2356 150° Southeast 430 495 41,000  Level Jacksonville Center
04:15PM 31.8456 -85.1669 151° Southeast 430 495 41,000  Level Jacksonville Center
04:16PM 31.7400 -85.1058 154° Southeast 424 488 41,000  Level Jacksonville Center
04:17PM 31.6347 -85.0375 151° Southeast 424 488 41,000  Level Jacksonville Center
04:18PM 31.5294 -84.9717 152° Southeast 429 494 41,000  Level Jacksonville Center
04:19PM 31.4219 -84.9036 152° Southeast 429 494 41,000  Level Jacksonville Center
04:20PM 31.3164 -84.8356 151° Southeast 429 494 41,000  Level Jacksonville Center
04:21PM 31.2089 -84.7653 151° Southeast 429 494 41,000  Level Jacksonville Center
04:22PM 31.1014 -84.6953 151° Southeast 429 494 41,000  Level Jacksonville Center
04:23PM 30.9917 -84.6303 153° Southeast 429 494 41,000  Level Jacksonville Center
04:24PM 30.8861 -84.5628 151° Southeast 434 499 41,000  Level Jacksonville Center
04:25PM 30.7806 -84.4958 151° Southeast 429 494 41,000  Level Jacksonville Center
04:26PM 30.6706 -84.4261 151° Southeast 429 494 41,000  Level Jacksonville Center
04:27PM 30.5650 -84.3594 151° Southeast 429 494 41,000  Level Jacksonville Center
04:28PM 30.4572 -84.2878 150° Southeast 429 494 41,000  Level Jacksonville Center
04:29PM 30.3453 -84.2189 152° Southeast 435 501 41,000  Level Jacksonville Center
04:30PM 30.2372 -84.1547 153° Southeast 440 506 41,000  Level Jacksonville Center
04:31PM 30.1253 -84.0861 152° Southeast 446 513 41,000  Level Jacksonville Center
04:32PM 30.0172 -84.0175 151° Southeast 446 513 41,000  Level Jacksonville Center
04:33PM 29.9072 -83.9517 153° Southeast 446 513 41,000  Level Jacksonville Center
04:34PM 29.7992 -83.8833 151° Southeast 446 513 41,000  Level Jacksonville Center
04:35PM 29.6911 -83.8203 153° Southeast 446 513 41,000  Level Jacksonville Center
04:36PM 29.5850 -83.7547 152° Southeast 441 507 41,000  Level Jacksonville Center
04:37PM 29.4811 -83.6917 152° Southeast 436 502 41,000  Level Jacksonville Center
04:38PM 29.3606 -83.6169 152° Southeast 436 502 41,000  Level Jacksonville Center
04:39PM 29.2522 -83.5519 152° Southeast 436 502 41,000  Level Jacksonville Center
04:40PM 29.1461 -83.4847 151° Southeast 436 502 41,000  Level Jacksonville Center
04:41PM 29.0358 -83.4175 152° Southeast 430 495 41,000  Level Jacksonville Center
04:42PM 28.9275 -83.3553 153° Southeast 430 495 41,000  Level Jacksonville Center
04:43PM 28.8172 -83.2858 151° Southeast 430 495 41,000 -60 Level Jacksonville Center
04:44PM 28.7089 -83.2192 152° Southeast 435 501 40,900  Descending Jacksonville Center
04:45PM 28.5961 -83.1525 153° Southeast 440 506 41,000  Climbing Jacksonville Center
04:46PM 28.4858 -83.0839 151° Southeast 446 513 41,000  Level Jacksonville Center
04:47PM 28.3731 -83.0222 154° Southeast 446 513 41,000  Level Jacksonville Center
04:48PM 28.2833 -82.9686 152° Southeast 449 517 41,000  Level Miami Center
04:49PM 28.1733 -82.9017 152° Southeast 449 517 41,000  Level Miami Center
04:50PM 28.0636 -82.8344 152° Southeast 449 517 41,000  Level Miami Center
04:51PM 27.9497 -82.7675 153° Southeast 449 517 41,000 -60 Level Miami Center
04:52PM 27.8394 -82.7053 153° Southeast 449 517 40,900 -600 Descending Miami Center
04:53PM 27.7194 -82.6311 151° Southeast 449 517 39,800 -1,020 Descending Miami Center
04:54PM 27.6072 -82.5669 153° Southeast 449 517 38,900 -960 Descending Miami Center
04:55PM 27.4992 -82.5031 152° Southeast 444 511 37,900 -1,020 Descending Miami Center
04:56PM 27.3950 -82.4444 153° Southeast 450 518 36,900 -960 Descending Miami Center
04:57PM 27.2828 -82.3781 152° Southeast 455 524 36,000 -1,200 Descending Miami Center
04:58PM 27.1644 -82.3072 152° Southeast 455 524 34,500 -1,500 Descending Miami Center
04:59PM 27.0481 -82.2411 153° Southeast 456 525 33,100 -1,380 Descending Miami Center
05:00PM 26.9478 -82.1853 154° Southeast 463 533 31,800 -1,440 Descending Miami Center
05:01PM 26.8353 -82.1197 153° Southeast 457 526 30,300 -1,320 Descending Miami Center
05:02PM 26.7303 -82.0267 142° Southeast 445 512 29,200 -1,200 Descending Miami Center
05:03PM 26.6631 -81.9167 124° Southeast 432 497 28,000 -2,040 Descending Miami Center
05:04PM 26.5917 -81.8114 127° Southeast 432 497 25,200 -2,760 Descending Miami Center
05:05PM 26.5306 -81.7000 121° Southeast 425 489 22,500 -2,700 Descending Miami Center
05:06PM 26.4628 -81.6019 128° Southeast 413 475 19,900 -2,880 Descending Miami Center
05:07PM 26.4264 -81.5008 112° Southeast 394 453 16,800 -3,000 Descending Miami Center
05:08PM 26.3944 -81.3906 108° East 380 437 13,900 -3,000 Descending Miami Center
05:09PM 26.3450 -81.2961 120° Southeast 351 404 10,900 -1,980 Descending Miami Center
05:10PM 26.2708 -81.1983 130° Southeast 296 341 9,600 -1,080 Descending Miami Center
05:11PM 26.2431 -81.1486 122° Southeast 296 341 9,000 -960 Descending Miami Center
05:12PM 26.2100 -81.0664 114° Southeast 299 344 8,100 -480 Descending Miami Center
05:13PM 26.1767 -80.9819 114° Southeast 294 338 8,100 -240 Level Miami Center
05:14PM 26.1439 -80.8858 111° Southeast 292 336 7,700 -720 Descending Miami Center
05:15PM 26.1272 -80.8092 104° East 293 337 6,700 -840 Descending Miami Center
05:16PM 26.1297 -80.7167 88° East 285 328 6,100 -360 Descending Miami Center
05:17PM 26.1364 -80.6242 85° East 275 316 6,000  Descending Miami Center
05:18PM 26.1342 -80.5433 92° East 282 325 6,100  Climbing Miami Center
05:19PM 26.1364 -80.4553 88° East 285 328 6,000  Descending Miami Center
05:20PM 26.1386 -80.3606 88° East 285 328 6,100  Climbing Miami Center
05:21PM 26.1428 -80.2728 87° East 283 326 6,100  Level Miami Center
05:22PM 26.1428 -80.1872 90° East 270 311 6,100 -420 Level Miami Center
05:23PM 26.1486 -80.1156 85° East 220 253 5,300 -780 Descending Miami Center
05:24PM 26.1519 -80.0531 87° East 183 211 4,600 -600 Descending Miami Center
05:25PM 26.1556 -79.9861 87° East 187 215 4,100 -300 Descending Miami Center
05:26PM 26.1608 -79.9261 84° East 195 224 4,000 -540 Descending Miami Center
05:27PM 26.1367 -79.8861 124° Southeast 173 199 3,100 -600 Descending Miami Center
05:28PM 26.0906 -79.8942 189° South 173 199 2,900 -540 Descending Miami Center
05:29PM 26.0750 -79.9425 250° West 165 190 2,100 -420 Descending Miami Center
05:30PM 26.0739 -79.9933 269° West 161 185 2,100 -180 Level Miami Center
05:31PM 26.0728 -80.0442 269° West 163 188 1,800 -300 Descending Miami Center